<?xml version="1.0" encoding="utf-8"?>
<gpx version="1.1" creator="com.bodunov.GalileoPro/v5.4.1" xmlns:xsi="http://www.w3.org/2001/XMLSchema-instance" xmlns="http://www.topografix.com/GPX/1/1" xmlns:gom="https://gurumaps.app/gpx/v3" xsi:schemaLocation="http://www.topografix.com/GPX/1/1 http://www.topografix.com/GPX/1/1/gpx.xsd https://gurumaps.app/gpx/v3 https://gurumaps.app/gpx/v3/schema.xsd">
 <trk>
  <type>TrackStyle_FFD60AC8</type>
  <extensions>
   <gom:time>2026-04-20T17:02:04.504Z</gom:time>
  </extensions>
  <trkseg>
   <trkpt lat="59.0559007527" lon="29.9803672567"><ele>105.7</ele><time>2026-04-20T17:02:05.113Z</time><hdop>4.75</hdop><vdop>4.125</vdop><extensions><gom:speed>0.0</gom:speed></extensions></trkpt>
   <trkpt lat="59.0561098393" lon="29.9817045894"><ele>101.321</ele><time>2026-04-20T17:04:01.133Z</time><hdop>3.0</hdop><vdop>2.5</vdop><extensions><gom:speed>0.92</gom:speed></extensions></trkpt>
   <trkpt lat="59.0568119494" lon="29.9820445594"><ele>96.94</ele><time>2026-04-20T17:05:43.111Z</time><hdop>3.0</hdop><vdop>2.5</vdop><extensions><gom:speed>0.992</gom:speed></extensions></trkpt>
   <trkpt lat="59.0575197173" lon="29.982324934"><ele>97.64</ele><time>2026-04-20T17:07:45.112Z</time><hdop>3.0</hdop><vdop>2.5</vdop><extensions><gom:speed>0.895</gom:speed></extensions></trkpt>
   <trkpt lat="59.0582323467" lon="29.9825858627"><ele>98.438</ele><time>2026-04-20T17:09:35.092Z</time><hdop>3.0</hdop><vdop>2.5</vdop><extensions><gom:speed>0.779</gom:speed></extensions></trkpt>
   <trkpt lat="59.0589138374" lon="29.9830703367"><ele>99.413</ele><time>2026-04-20T17:12:17.113Z</time><hdop>3.0</hdop><vdop>2.5</vdop><extensions><gom:speed>0.921</gom:speed></extensions></trkpt>
   <trkpt lat="59.0596332561" lon="29.9832022678"><ele>99.095</ele><time>2026-04-20T17:14:10.114Z</time><hdop>3.0</hdop><vdop>2.5</vdop><extensions><gom:speed>0.945</gom:speed></extensions></trkpt>
   <trkpt lat="59.0603480229" lon="29.9834457621"><ele>100.854</ele><time>2026-04-20T17:16:46.087Z</time><hdop>3.125</hdop><vdop>2.5</vdop><extensions><gom:speed>0.793</gom:speed></extensions></trkpt>
   <trkpt lat="59.0610596465" lon="29.9836600874"><ele>96.862</ele><time>2026-04-20T17:18:43.920Z</time><hdop>3.5</hdop><vdop>2.5</vdop><extensions><gom:speed>0.938</gom:speed></extensions></trkpt>
   <trkpt lat="59.0617468368" lon="29.9832359631"><ele>96.476</ele><time>2026-04-20T17:24:23.689Z</time><hdop>3.0</hdop><vdop>2.5</vdop><extensions><gom:speed>0.606</gom:speed></extensions></trkpt>
   <trkpt lat="59.0622235576" lon="29.9821829446"><ele>90.121</ele><time>2026-04-20T17:33:36.809Z</time><hdop>3.0</hdop><vdop>2.5</vdop><extensions><gom:speed>0.84</gom:speed></extensions></trkpt>
   <trkpt lat="59.0627294473" lon="29.9811803013"><ele>96.887</ele><time>2026-04-20T17:36:13.120Z</time><hdop>3.0</hdop><vdop>2.625</vdop><extensions><gom:speed>0.859</gom:speed></extensions></trkpt>
   <trkpt lat="59.0634388497" lon="29.9809355498"><ele>101.185</ele><time>2026-04-20T17:38:22.120Z</time><hdop>3.0</hdop><vdop>2.5</vdop><extensions><gom:speed>0.8</gom:speed></extensions></trkpt>
   <trkpt lat="59.0640794367" lon="29.9802836892"><ele>103.727</ele><time>2026-04-20T17:41:04.120Z</time><hdop>3.0</hdop><vdop>2.5</vdop><extensions><gom:speed>0.774</gom:speed></extensions></trkpt>
   <trkpt lat="59.0647167547" lon="29.9796304875"><ele>98.881</ele><time>2026-04-20T17:43:27.263Z</time><hdop>3.0</hdop><vdop>2.5</vdop><extensions><gom:speed>0.632</gom:speed></extensions></trkpt>
   <trkpt lat="59.0653597305" lon="29.9789989949"><ele>100.872</ele><time>2026-04-20T17:46:37.122Z</time><hdop>3.0</hdop><vdop>2.5</vdop><extensions><gom:speed>0.748</gom:speed></extensions></trkpt>
   <trkpt lat="59.0660277262" lon="29.9784814123"><ele>90.108</ele><time>2026-04-20T17:51:51.123Z</time><hdop>3.0</hdop><vdop>2.5</vdop><extensions><gom:speed>0.751</gom:speed></extensions></trkpt>
   <trkpt lat="59.0666324386" lon="29.9777254485"><ele>95.586</ele><time>2026-04-20T17:56:02.878Z</time><hdop>3.0</hdop><vdop>2.5</vdop><extensions><gom:speed>0.581</gom:speed></extensions></trkpt>
   <trkpt lat="59.0672462454" lon="29.9769650422"><ele>89.773</ele><time>2026-04-20T18:05:04.127Z</time><hdop>3.0</hdop><vdop>2.5</vdop><extensions><gom:speed>0.109</gom:speed></extensions></trkpt>
   <trkpt lat="59.0679642392" lon="29.9768928741"><ele>94.527</ele><time>2026-04-20T18:06:49.128Z</time><hdop>3.0</hdop><vdop>2.5</vdop><extensions><gom:speed>0.77</gom:speed></extensions></trkpt>
   <trkpt lat="59.0686788384" lon="29.9766474519"><ele>61.787</ele><time>2026-04-20T18:11:09.129Z</time><hdop>3.0</hdop><vdop>4.125</vdop><extensions><gom:speed>0.277</gom:speed></extensions></trkpt>
   <trkpt lat="59.0693970418" lon="29.9765426781"><ele>95.091</ele><time>2026-04-20T18:12:08.813Z</time><hdop>4.0</hdop><vdop>2.5</vdop><extensions><gom:speed>0.892</gom:speed></extensions></trkpt>
   <trkpt lat="59.0700392213" lon="29.9771748413"><ele>82.321</ele><time>2026-04-20T18:14:50.130Z</time><hdop>3.0</hdop><vdop>2.5</vdop><extensions><gom:speed>0.493</gom:speed></extensions></trkpt>
   <trkpt lat="59.0707654294" lon="29.9771512043"><ele>85.682</ele><time>2026-04-20T18:16:29.703Z</time><hdop>3.0</hdop><vdop>2.75</vdop><extensions><gom:speed>0.748</gom:speed></extensions></trkpt>
   <trkpt lat="59.0714860216" lon="29.977023045"><ele>90.099</ele><time>2026-04-20T18:18:25.132Z</time><hdop>3.875</hdop><vdop>5.875</vdop><extensions><gom:speed>1.032</gom:speed></extensions></trkpt>
   <trkpt lat="59.0721900176" lon="29.9767238111"><ele>80.043</ele><time>2026-04-20T18:22:33.878Z</time><hdop>3.0</hdop><vdop>5.25</vdop><extensions><gom:speed>0.766</gom:speed></extensions></trkpt>
   <trkpt lat="59.0728279224" lon="29.9773761746"><ele>63.679</ele><time>2026-04-20T18:29:40.972Z</time><hdop>3.0</hdop><vdop>5.125</vdop><extensions><gom:speed>0.577</gom:speed></extensions></trkpt>
   <trkpt lat="59.0732151244" lon="29.9785643094"><ele>91.196</ele><time>2026-04-20T18:33:43.134Z</time><hdop>3.0</hdop><vdop>3.625</vdop><extensions><gom:speed>0.804</gom:speed></extensions></trkpt>
   <trkpt lat="59.0725970429" lon="29.977848411"><ele>103.061</ele><time>2026-04-20T18:43:13.137Z</time><hdop>3.0</hdop><vdop>2.5</vdop><extensions><gom:speed>0.227</gom:speed></extensions></trkpt>
   <trkpt lat="59.0732411502" lon="29.9785049655"><ele>108.717</ele><time>2026-04-20T18:50:45.625Z</time><hdop>3.0</hdop><vdop>2.5</vdop><extensions><gom:speed>0.802</gom:speed></extensions></trkpt>
   <trkpt lat="59.072935546" lon="29.9797730636"><ele>105.742</ele><time>2026-04-20T18:53:06.140Z</time><hdop>4.5</hdop><vdop>2.5</vdop><extensions><gom:speed>0.75</gom:speed></extensions></trkpt>
   <trkpt lat="59.0724473421" lon="29.9808084801"><ele>109.013</ele><time>2026-04-20T18:57:27.705Z</time><hdop>3.0</hdop><vdop>2.5</vdop><extensions><gom:speed>0.861</gom:speed></extensions></trkpt>
   <trkpt lat="59.0717224332" lon="29.9808215559"><ele>108.699</ele><time>2026-04-20T19:04:32.143Z</time><hdop>3.0</hdop><vdop>2.5</vdop><extensions><gom:speed>0.581</gom:speed></extensions></trkpt>
   <trkpt lat="59.0710222509" lon="29.9811479472"><ele>107.849</ele><time>2026-04-20T19:06:34.745Z</time><hdop>3.25</hdop><vdop>2.5</vdop><extensions><gom:speed>0.701</gom:speed></extensions></trkpt>
   <trkpt lat="59.0703295285" lon="29.9815396335"><ele>103.226</ele><time>2026-04-20T19:08:09.133Z</time><hdop>3.0</hdop><vdop>2.5</vdop><extensions><gom:speed>0.921</gom:speed></extensions></trkpt>
   <trkpt lat="59.0696307292" lon="29.9818995525"><ele>106.161</ele><time>2026-04-20T19:10:26.978Z</time><hdop>3.0</hdop><vdop>2.5</vdop><extensions><gom:speed>1.008</gom:speed></extensions></trkpt>
   <trkpt lat="59.068926817" lon="29.9822067492"><ele>102.589</ele><time>2026-04-20T19:12:01.145Z</time><hdop>3.0</hdop><vdop>2.5</vdop><extensions><gom:speed>0.811</gom:speed></extensions></trkpt>
   <trkpt lat="59.0682275567" lon="29.9825813365"><ele>105.209</ele><time>2026-04-20T19:13:49.485Z</time><hdop>3.0</hdop><vdop>2.5</vdop><extensions><gom:speed>0.992</gom:speed></extensions></trkpt>
   <trkpt lat="59.0675200403" lon="29.9828455341"><ele>104.029</ele><time>2026-04-20T19:16:04.919Z</time><hdop>3.0</hdop><vdop>2.5</vdop><extensions><gom:speed>0.9</gom:speed></extensions></trkpt>
   <trkpt lat="59.0668909365" lon="29.9835334368"><ele>104.141</ele><time>2026-04-20T19:23:42.701Z</time><hdop>3.0</hdop><vdop>2.5</vdop><extensions><gom:speed>0.835</gom:speed></extensions></trkpt>
   <trkpt lat="59.0666310556" lon="29.9848498147"><ele>98.526</ele><time>2026-04-20T19:42:35.277Z</time><hdop>3.0</hdop><vdop>2.5</vdop><extensions><gom:speed>0.82</gom:speed></extensions></trkpt>
   <trkpt lat="59.0662454462" lon="29.9860300705"><ele>98.527</ele><time>2026-04-20T19:46:45.672Z</time><hdop>3.0</hdop><vdop>2.5</vdop><extensions><gom:speed>0.094</gom:speed></extensions></trkpt>
   <trkpt lat="59.0655309308" lon="29.9858799506"><ele>95.458</ele><time>2026-04-20T19:50:14.853Z</time><hdop>3.0</hdop><vdop>2.5</vdop><extensions><gom:speed>0.065</gom:speed></extensions></trkpt>
   <trkpt lat="59.064991723" lon="29.9849537503"><ele>91.679</ele><time>2026-04-20T19:54:56.290Z</time><hdop>3.0</hdop><vdop>2.5</vdop><extensions><gom:speed>0.468</gom:speed></extensions></trkpt>
   <trkpt lat="59.0642790517" lon="29.9847097531"><ele>88.436</ele><time>2026-04-20T19:57:13.147Z</time><hdop>3.0</hdop><vdop>2.5</vdop><extensions><gom:speed>0.469</gom:speed></extensions></trkpt>
   <trkpt lat="59.0635641173" lon="29.9845233396"><ele>92.299</ele><time>2026-04-20T20:00:54.158Z</time><hdop>3.0</hdop><vdop>2.75</vdop><extensions><gom:speed>0.31</gom:speed></extensions></trkpt>
   <trkpt lat="59.0628526194" lon="29.9842516821"><ele>95.731</ele><time>2026-04-20T20:04:28.321Z</time><hdop>3.0</hdop><vdop>3.25</vdop><extensions><gom:speed>0.668</gom:speed></extensions></trkpt>
   <trkpt lat="59.0621423369" lon="29.984028053"><ele>94.389</ele><time>2026-04-20T20:08:38.276Z</time><hdop>3.0</hdop><vdop>2.5</vdop><extensions><gom:speed>0.145</gom:speed></extensions></trkpt>
   <trkpt lat="59.0614346529" lon="29.983765867"><ele>96.217</ele><time>2026-04-20T20:10:58.308Z</time><hdop>3.0</hdop><vdop>2.5</vdop><extensions><gom:speed>0.571</gom:speed></extensions></trkpt>
   <trkpt lat="59.0607246218" lon="29.9835124821"><ele>97.912</ele><time>2026-04-20T20:14:53.484Z</time><hdop>3.125</hdop><vdop>2.5</vdop><extensions><gom:speed>0.738</gom:speed></extensions></trkpt>
   <trkpt lat="59.060017734" lon="29.9832565826"><ele>98.413</ele><time>2026-04-20T20:19:09.229Z</time><hdop>3.0</hdop><vdop>2.5</vdop><extensions><gom:speed>0.303</gom:speed></extensions></trkpt>
   <trkpt lat="59.0593070325" lon="29.9830299359"><ele>100.023</ele><time>2026-04-20T20:21:56.164Z</time><hdop>3.0</hdop><vdop>2.5</vdop><extensions><gom:speed>0.167</gom:speed></extensions></trkpt>
   <trkpt lat="59.0585931458" lon="29.9828328774"><ele>100.784</ele><time>2026-04-20T20:24:30.863Z</time><hdop>3.0</hdop><vdop>2.5</vdop><extensions><gom:speed>0.576</gom:speed></extensions></trkpt>
   <trkpt lat="59.0578902394" lon="29.982536158"><ele>97.221</ele><time>2026-04-20T20:27:50.969Z</time><hdop>3.0</hdop><vdop>2.5</vdop><extensions><gom:speed>0.197</gom:speed></extensions></trkpt>
   <trkpt lat="59.05718595" lon="29.9822419532"><ele>95.939</ele><time>2026-04-20T20:31:03.172Z</time><hdop>3.0</hdop><vdop>2.5</vdop><extensions><gom:speed>0.288</gom:speed></extensions></trkpt>
   <trkpt lat="59.05647265" lon="29.98204984"><ele>94.557</ele><time>2026-04-20T20:33:46.172Z</time><hdop>3.75</hdop><vdop>2.5</vdop><extensions><gom:speed>0.878</gom:speed></extensions></trkpt>
   <trkpt lat="59.0560190214" lon="29.9809642997"><ele>94.978</ele><time>2026-04-20T20:36:26.776Z</time><hdop>3.0</hdop><vdop>2.625</vdop><extensions><gom:speed>0.868</gom:speed></extensions></trkpt>
   <trkpt lat="59.0558744336" lon="29.9794677109"><ele>103.595</ele><time>2026-04-20T20:58:29.171Z</time><hdop>7.0</hdop><vdop>4.625</vdop><extensions><gom:speed>6.538</gom:speed></extensions></trkpt>
   <trkpt lat="59.0557938416" lon="29.9780689389"><ele>102.768</ele><time>2026-04-20T20:58:36.172Z</time><hdop>11.25</hdop><vdop>6.125</vdop><extensions><gom:speed>12.072</gom:speed></extensions></trkpt>
   <trkpt lat="59.0556635449" lon="29.9765930534"><ele>100.264</ele><time>2026-04-20T20:58:42.171Z</time><hdop>11.5</hdop><vdop>9.125</vdop><extensions><gom:speed>15.148</gom:speed></extensions></trkpt>
   <trkpt lat="59.0555387383" lon="29.9749517929"><ele>107.914</ele><time>2026-04-20T20:58:48.159Z</time><hdop>11.625</hdop><vdop>8.0</vdop><extensions><gom:speed>15.838</gom:speed></extensions></trkpt>
   <trkpt lat="59.0554471661" lon="29.9734145519"><ele>98.812</ele><time>2026-04-20T20:58:54.155Z</time><hdop>11.5</hdop><vdop>9.5</vdop><extensions><gom:speed>15.018</gom:speed></extensions></trkpt>
   <trkpt lat="59.0553478405" lon="29.9718973436"><ele>88.308</ele><time>2026-04-20T20:59:00.155Z</time><hdop>11.625</hdop><vdop>7.125</vdop><extensions><gom:speed>14.938</gom:speed></extensions></trkpt>
   <trkpt lat="59.0552385405" lon="29.9702958972"><ele>84.532</ele><time>2026-04-20T20:59:06.171Z</time><hdop>11.75</hdop><vdop>7.625</vdop><extensions><gom:speed>15.278</gom:speed></extensions></trkpt>
   <trkpt lat="59.0551330542" lon="29.9687498551"><ele>83.755</ele><time>2026-04-20T20:59:12.171Z</time><hdop>11.75</hdop><vdop>6.0</vdop><extensions><gom:speed>14.538</gom:speed></extensions></trkpt>
   <trkpt lat="59.0551524164" lon="29.9671361711"><ele>71.494</ele><time>2026-04-20T20:59:19.332Z</time><hdop>12.75</hdop><vdop>6.375</vdop><extensions><gom:speed>14.428</gom:speed></extensions></trkpt>
   <trkpt lat="59.0549603451" lon="29.9657478765"><ele>66.667</ele><time>2026-04-20T20:59:24.192Z</time><hdop>12.5</hdop><vdop>5.625</vdop><extensions><gom:speed>16.738</gom:speed></extensions></trkpt>
   <trkpt lat="59.0548991572" lon="29.9643395491"><ele>61.891</ele><time>2026-04-20T20:59:29.331Z</time><hdop>13.25</hdop><vdop>6.0</vdop><extensions><gom:speed>15.928</gom:speed></extensions></trkpt>
   <trkpt lat="59.0550787395" lon="29.962897778"><ele>73.448</ele><time>2026-04-20T20:59:37.193Z</time><hdop>14.0</hdop><vdop>8.25</vdop><extensions><gom:speed>7.118</gom:speed></extensions></trkpt>
   <trkpt lat="59.0547969399" lon="29.964226142"><ele>106.837</ele><time>2026-04-20T20:59:52.330Z</time><hdop>14.75</hdop><vdop>9.75</vdop><extensions><gom:speed>14.958</gom:speed></extensions></trkpt>
   <trkpt lat="59.0549947528" lon="29.9657700885"><ele>118.357</ele><time>2026-04-20T20:59:58.187Z</time><hdop>14.25</hdop><vdop>9.625</vdop><extensions><gom:speed>14.428</gom:speed></extensions></trkpt>
   <trkpt lat="59.0549737562" lon="29.9673569505"><ele>111.421</ele><time>2026-04-20T21:00:05.186Z</time><hdop>13.125</hdop><vdop>8.375</vdop><extensions><gom:speed>12.188</gom:speed></extensions></trkpt>
   <trkpt lat="59.0550533423" lon="29.968840212"><ele>111.489</ele><time>2026-04-20T21:00:11.189Z</time><hdop>12.125</hdop><vdop>7.25</vdop><extensions><gom:speed>14.558</gom:speed></extensions></trkpt>
   <trkpt lat="59.0551785261" lon="29.9704324384"><ele>97.594</ele><time>2026-04-20T21:00:16.331Z</time><hdop>11.5</hdop><vdop>6.125</vdop><extensions><gom:speed>17.798</gom:speed></extensions></trkpt>
   <trkpt lat="59.0552868202" lon="29.9721133452"><ele>92.921</ele><time>2026-04-20T21:00:21.331Z</time><hdop>11.0</hdop><vdop>5.375</vdop><extensions><gom:speed>19.678</gom:speed></extensions></trkpt>
   <trkpt lat="59.0554191286" lon="29.973511782"><ele>91.799</ele><time>2026-04-20T21:00:25.190Z</time><hdop>10.75</hdop><vdop>5.125</vdop><extensions><gom:speed>20.438</gom:speed></extensions></trkpt>
   <trkpt lat="59.0555382354" lon="29.9749246356"><ele>93.776</ele><time>2026-04-20T21:00:29.331Z</time><hdop>10.625</hdop><vdop>4.875</vdop><extensions><gom:speed>20.778</gom:speed></extensions></trkpt>
   <trkpt lat="59.0556493376" lon="29.9764536623"><ele>91.82</ele><time>2026-04-20T21:00:33.187Z</time><hdop>10.625</hdop><vdop>5.25</vdop><extensions><gom:speed>21.728</gom:speed></extensions></trkpt>
   <trkpt lat="59.0557624513" lon="29.977976235"><ele>90.902</ele><time>2026-04-20T21:00:37.305Z</time><hdop>10.875</hdop><vdop>6.375</vdop><extensions><gom:speed>22.278</gom:speed></extensions></trkpt>
   <trkpt lat="59.0559051532" lon="29.9794915993"><ele>93.167</ele><time>2026-04-20T21:00:41.187Z</time><hdop>11.125</hdop><vdop>5.75</vdop><extensions><gom:speed>21.828</gom:speed></extensions></trkpt>
   <trkpt lat="59.0560198177" lon="29.9809663114"><ele>91.549</ele><time>2026-04-20T21:00:45.331Z</time><hdop>10.875</hdop><vdop>4.875</vdop><extensions><gom:speed>21.588</gom:speed></extensions></trkpt>
   <trkpt lat="59.0561201491" lon="29.9824372515"><ele>92.115</ele><time>2026-04-20T21:00:49.189Z</time><hdop>10.5</hdop><vdop>3.875</vdop><extensions><gom:speed>21.428</gom:speed></extensions></trkpt>
   <trkpt lat="59.0562186364" lon="29.983910371"><ele>91.929</ele><time>2026-04-20T21:00:53.330Z</time><hdop>10.125</hdop><vdop>3.375</vdop><extensions><gom:speed>21.278</gom:speed></extensions></trkpt>
   <trkpt lat="59.0563308282" lon="29.9853861727"><ele>94.001</ele><time>2026-04-20T21:00:57.311Z</time><hdop>10.25</hdop><vdop>3.625</vdop><extensions><gom:speed>21.098</gom:speed></extensions></trkpt>
   <trkpt lat="59.0564622564" lon="29.9868314643"><ele>92.652</ele><time>2026-04-20T21:01:01.323Z</time><hdop>10.75</hdop><vdop>3.875</vdop><extensions><gom:speed>20.268</gom:speed></extensions></trkpt>
   <trkpt lat="59.0565869372" lon="29.988494853"><ele>91.402</ele><time>2026-04-20T21:01:06.324Z</time><hdop>10.625</hdop><vdop>4.125</vdop><extensions><gom:speed>18.658</gom:speed></extensions></trkpt>
   <trkpt lat="59.0567058345" lon="29.9899489455"><ele>93.969</ele><time>2026-04-20T21:01:11.189Z</time><hdop>10.5</hdop><vdop>4.625</vdop><extensions><gom:speed>16.028</gom:speed></extensions></trkpt>
   <trkpt lat="59.05681262" lon="29.9913600389"><ele>95.756</ele><time>2026-04-20T21:01:16.172Z</time><hdop>10.5</hdop><vdop>3.75</vdop><extensions><gom:speed>14.598</gom:speed></extensions></trkpt>
   <trkpt lat="59.0569600577" lon="29.9930154648"><ele>95.272</ele><time>2026-04-20T21:01:21.172Z</time><hdop>9.875</hdop><vdop>2.5</vdop><extensions><gom:speed>20.288</gom:speed></extensions></trkpt>
   <trkpt lat="59.0570758537" lon="29.9944119737"><ele>94.832</ele><time>2026-04-20T21:01:25.171Z</time><hdop>9.875</hdop><vdop>2.5</vdop><extensions><gom:speed>20.188</gom:speed></extensions></trkpt>
   <trkpt lat="59.0571816333" lon="29.9958018609"><ele>94.165</ele><time>2026-04-20T21:01:29.171Z</time><hdop>6.75</hdop><vdop>2.5</vdop><extensions><gom:speed>20.378</gom:speed></extensions></trkpt>
   <trkpt lat="59.0572819227" lon="29.9972143792"><ele>94.155</ele><time>2026-04-20T21:01:33.172Z</time><hdop>3.75</hdop><vdop>2.5</vdop><extensions><gom:speed>20.158</gom:speed></extensions></trkpt>
   <trkpt lat="59.0573967548" lon="29.9986435775"><ele>94.267</ele><time>2026-04-20T21:01:37.172Z</time><hdop>3.75</hdop><vdop>2.5</vdop><extensions><gom:speed>20.688</gom:speed></extensions></trkpt>
   <trkpt lat="59.0575256266" lon="30.0001109135"><ele>94.166</ele><time>2026-04-20T21:01:41.172Z</time><hdop>3.75</hdop><vdop>2.5</vdop><extensions><gom:speed>21.368</gom:speed></extensions></trkpt>
   <trkpt lat="59.057658354" lon="30.0016005453"><ele>94.611</ele><time>2026-04-20T21:01:46.172Z</time><hdop>3.75</hdop><vdop>2.5</vdop><extensions><gom:speed>13.978</gom:speed></extensions></trkpt>
   <trkpt lat="59.0577991281" lon="30.003238453"><ele>95.376</ele><time>2026-04-20T21:01:52.172Z</time><hdop>3.75</hdop><vdop>2.5</vdop><extensions><gom:speed>17.668</gom:speed></extensions></trkpt>
   <trkpt lat="59.0579162233" lon="30.0048675597"><ele>95.679</ele><time>2026-04-20T21:01:57.172Z</time><hdop>3.75</hdop><vdop>2.5</vdop><extensions><gom:speed>19.508</gom:speed></extensions></trkpt>
   <trkpt lat="59.0580573326" lon="30.0065244943"><ele>94.196</ele><time>2026-04-20T21:02:02.171Z</time><hdop>3.75</hdop><vdop>2.5</vdop><extensions><gom:speed>17.938</gom:speed></extensions></trkpt>
   <trkpt lat="59.0576575577" lon="30.0077393674"><ele>93.199</ele><time>2026-04-20T21:02:14.172Z</time><hdop>3.75</hdop><vdop>2.5</vdop><extensions><gom:speed>11.978</gom:speed></extensions></trkpt>
   <trkpt lat="59.0568087224" lon="30.0080015533"><ele>92.834</ele><time>2026-04-20T21:02:20.171Z</time><hdop>3.75</hdop><vdop>2.5</vdop><extensions><gom:speed>18.438</gom:speed></extensions></trkpt>
   <trkpt lat="59.0560771499" lon="30.0082321395"><ele>92.39</ele><time>2026-04-20T21:02:24.171Z</time><hdop>3.75</hdop><vdop>2.5</vdop><extensions><gom:speed>21.188</gom:speed></extensions></trkpt>
   <trkpt lat="59.0552970462" lon="30.0085200578"><ele>92.653</ele><time>2026-04-20T21:02:28.172Z</time><hdop>3.75</hdop><vdop>2.5</vdop><extensions><gom:speed>22.008</gom:speed></extensions></trkpt>
   <trkpt lat="59.0544946466" lon="30.0087684136"><ele>91.198</ele><time>2026-04-20T21:02:32.171Z</time><hdop>3.75</hdop><vdop>2.5</vdop><extensions><gom:speed>23.328</gom:speed></extensions></trkpt>
   <trkpt lat="59.053641746" lon="30.0090559967"><ele>90.294</ele><time>2026-04-20T21:02:36.171Z</time><hdop>3.75</hdop><vdop>2.5</vdop><extensions><gom:speed>24.088</gom:speed></extensions></trkpt>
   <trkpt lat="59.0528106384" lon="30.0093483575"><ele>91.119</ele><time>2026-04-20T21:02:40.172Z</time><hdop>3.75</hdop><vdop>2.5</vdop><extensions><gom:speed>22.898</gom:speed></extensions></trkpt>
   <trkpt lat="59.0520459574" lon="30.0095998146"><ele>93.579</ele><time>2026-04-20T21:02:44.172Z</time><hdop>3.75</hdop><vdop>2.5</vdop><extensions><gom:speed>21.128</gom:speed></extensions></trkpt>
   <trkpt lat="59.0513161451" lon="30.0098485057"><ele>94.127</ele><time>2026-04-20T21:02:48.172Z</time><hdop>3.75</hdop><vdop>2.5</vdop><extensions><gom:speed>20.188</gom:speed></extensions></trkpt>
   <trkpt lat="59.0504613167" lon="30.0101244379"><ele>94.184</ele><time>2026-04-20T21:02:53.172Z</time><hdop>3.75</hdop><vdop>2.5</vdop><extensions><gom:speed>18.978</gom:speed></extensions></trkpt>
   <trkpt lat="59.049578828" lon="30.010418056"><ele>95.314</ele><time>2026-04-20T21:02:58.172Z</time><hdop>3.75</hdop><vdop>2.5</vdop><extensions><gom:speed>20.288</gom:speed></extensions></trkpt>
   <trkpt lat="59.048831749" lon="30.0106550962"><ele>95.814</ele><time>2026-04-20T21:03:02.171Z</time><hdop>3.75</hdop><vdop>2.5</vdop><extensions><gom:speed>21.538</gom:speed></extensions></trkpt>
   <trkpt lat="59.0480402459" lon="30.0109054637"><ele>95.846</ele><time>2026-04-20T21:03:06.172Z</time><hdop>3.75</hdop><vdop>2.5</vdop><extensions><gom:speed>22.878</gom:speed></extensions></trkpt>
   <trkpt lat="59.047220831" lon="30.011181815"><ele>95.196</ele><time>2026-04-20T21:03:10.172Z</time><hdop>3.75</hdop><vdop>2.5</vdop><extensions><gom:speed>23.218</gom:speed></extensions></trkpt>
   <trkpt lat="59.0464377517" lon="30.0114346132"><ele>94.73</ele><time>2026-04-20T21:03:14.171Z</time><hdop>3.75</hdop><vdop>2.5</vdop><extensions><gom:speed>21.918</gom:speed></extensions></trkpt>
   <trkpt lat="59.045678938" lon="30.0116825499"><ele>94.601</ele><time>2026-04-20T21:03:18.172Z</time><hdop>3.75</hdop><vdop>2.5</vdop><extensions><gom:speed>21.138</gom:speed></extensions></trkpt>
   <trkpt lat="59.0449551188" lon="30.0119208474"><ele>94.672</ele><time>2026-04-20T21:03:22.172Z</time><hdop>3.75</hdop><vdop>2.5</vdop><extensions><gom:speed>18.838</gom:speed></extensions></trkpt>
   <trkpt lat="59.0441693572" lon="30.01219569"><ele>94.337</ele><time>2026-04-20T21:03:27.171Z</time><hdop>3.75</hdop><vdop>2.5</vdop><extensions><gom:speed>18.248</gom:speed></extensions></trkpt>
   <trkpt lat="59.0433146546" lon="30.0124531821"><ele>94.036</ele><time>2026-04-20T21:03:32.172Z</time><hdop>3.75</hdop><vdop>2.5</vdop><extensions><gom:speed>19.698</gom:speed></extensions></trkpt>
   <trkpt lat="59.0425850518" lon="30.0126873725"><ele>92.514</ele><time>2026-04-20T21:03:36.172Z</time><hdop>3.75</hdop><vdop>2.5</vdop><extensions><gom:speed>20.548</gom:speed></extensions></trkpt>
   <trkpt lat="59.0418308482" lon="30.0129501451"><ele>92.412</ele><time>2026-04-20T21:03:40.171Z</time><hdop>3.75</hdop><vdop>2.5</vdop><extensions><gom:speed>20.478</gom:speed></extensions></trkpt>
   <trkpt lat="59.0410967192" lon="30.0132073857"><ele>91.715</ele><time>2026-04-20T21:03:45.171Z</time><hdop>3.75</hdop><vdop>2.5</vdop><extensions><gom:speed>13.078</gom:speed></extensions></trkpt>
   <trkpt lat="59.0404385302" lon="30.0125760608"><ele>92.509</ele><time>2026-04-20T21:03:55.172Z</time><hdop>3.75</hdop><vdop>2.5</vdop><extensions><gom:speed>13.358</gom:speed></extensions></trkpt>
   <trkpt lat="59.0399706524" lon="30.0114121497"><ele>93.456</ele><time>2026-04-20T21:04:00.171Z</time><hdop>3.75</hdop><vdop>2.5</vdop><extensions><gom:speed>18.858</gom:speed></extensions></trkpt>
   <trkpt lat="59.0394719292" lon="30.0101039861"><ele>94.843</ele><time>2026-04-20T21:04:05.172Z</time><hdop>3.75</hdop><vdop>2.5</vdop><extensions><gom:speed>18.368</gom:speed></extensions></trkpt>
   <trkpt lat="59.0391832564" lon="30.0085158669"><ele>94.651</ele><time>2026-04-20T21:04:10.172Z</time><hdop>3.75</hdop><vdop>2.625</vdop><extensions><gom:speed>20.778</gom:speed></extensions></trkpt>
   <trkpt lat="59.0389826356" lon="30.0071447552"><ele>94.426</ele><time>2026-04-20T21:04:14.172Z</time><hdop>3.75</hdop><vdop>2.5</vdop><extensions><gom:speed>19.658</gom:speed></extensions></trkpt>
   <trkpt lat="59.0389742537" lon="30.0054594059"><ele>94.686</ele><time>2026-04-20T21:04:19.171Z</time><hdop>3.75</hdop><vdop>2.5</vdop><extensions><gom:speed>19.898</gom:speed></extensions></trkpt>
   <trkpt lat="59.039146837" lon="30.0039927405"><ele>93.578</ele><time>2026-04-20T21:04:23.171Z</time><hdop>3.75</hdop><vdop>2.5</vdop><extensions><gom:speed>22.298</gom:speed></extensions></trkpt>
   <trkpt lat="59.0393333344" lon="30.0024458603"><ele>93.729</ele><time>2026-04-20T21:04:27.172Z</time><hdop>3.75</hdop><vdop>2.5</vdop><extensions><gom:speed>22.668</gom:speed></extensions></trkpt>
   <trkpt lat="59.0395151379" lon="30.0010296539"><ele>93.881</ele><time>2026-04-20T21:04:31.172Z</time><hdop>3.75</hdop><vdop>2.5</vdop><extensions><gom:speed>20.828</gom:speed></extensions></trkpt>
   <trkpt lat="59.0396879308" lon="29.9995383457"><ele>94.165</ele><time>2026-04-20T21:04:35.171Z</time><hdop>3.75</hdop><vdop>2.5</vdop><extensions><gom:speed>22.368</gom:speed></extensions></trkpt>
   <trkpt lat="59.0398517551" lon="29.9980299384"><ele>94.669</ele><time>2026-04-20T21:04:39.171Z</time><hdop>3.75</hdop><vdop>2.5</vdop><extensions><gom:speed>21.688</gom:speed></extensions></trkpt>
   <trkpt lat="59.039792034" lon="29.9963419907"><ele>94.031</ele><time>2026-04-20T21:04:44.172Z</time><hdop>3.75</hdop><vdop>2.5</vdop><extensions><gom:speed>18.628</gom:speed></extensions></trkpt>
   <trkpt lat="59.0392681232" lon="29.9950331565"><ele>93.459</ele><time>2026-04-20T21:04:49.172Z</time><hdop>3.75</hdop><vdop>2.5</vdop><extensions><gom:speed>19.258</gom:speed></extensions></trkpt>
   <trkpt lat="59.0388792448" lon="29.9938048725"><ele>92.949</ele><time>2026-04-20T21:04:53.171Z</time><hdop>3.75</hdop><vdop>2.5</vdop><extensions><gom:speed>21.558</gom:speed></extensions></trkpt>
   <trkpt lat="59.0384894444" lon="29.9923903425"><ele>92.444</ele><time>2026-04-20T21:04:57.172Z</time><hdop>3.75</hdop><vdop>2.5</vdop><extensions><gom:speed>23.898</gom:speed></extensions></trkpt>
   <trkpt lat="59.038114438" lon="29.9908594717"><ele>92.856</ele><time>2026-04-20T21:05:01.171Z</time><hdop>3.75</hdop><vdop>2.5</vdop><extensions><gom:speed>24.718</gom:speed></extensions></trkpt>
   <trkpt lat="59.0376475241" lon="29.9893682473"><ele>92.549</ele><time>2026-04-20T21:05:05.172Z</time><hdop>3.75</hdop><vdop>2.5</vdop><extensions><gom:speed>25.458</gom:speed></extensions></trkpt>
   <trkpt lat="59.0372079352" lon="29.9879276496"><ele>92.711</ele><time>2026-04-20T21:05:09.172Z</time><hdop>3.75</hdop><vdop>2.5</vdop><extensions><gom:speed>22.968</gom:speed></extensions></trkpt>
   <trkpt lat="59.0369506527" lon="29.9864669353"><ele>92.658</ele><time>2026-04-20T21:05:13.171Z</time><hdop>3.75</hdop><vdop>2.5</vdop><extensions><gom:speed>21.808</gom:speed></extensions></trkpt>
   <trkpt lat="59.0369170412" lon="29.9847291992"><ele>92.608</ele><time>2026-04-20T21:05:18.172Z</time><hdop>3.75</hdop><vdop>2.5</vdop><extensions><gom:speed>19.608</gom:speed></extensions></trkpt>
   <trkpt lat="59.0366733374" lon="29.9833421618"><ele>93.344</ele><time>2026-04-20T21:05:23.171Z</time><hdop>3.75</hdop><vdop>2.5</vdop><extensions><gom:speed>17.118</gom:speed></extensions></trkpt>
   <trkpt lat="59.0361186231" lon="29.981987311"><ele>93.308</ele><time>2026-04-20T21:05:28.172Z</time><hdop>3.75</hdop><vdop>2.5</vdop><extensions><gom:speed>21.068</gom:speed></extensions></trkpt>
   <trkpt lat="59.0355968496" lon="29.9810039461"><ele>93.113</ele><time>2026-04-20T21:05:32.171Z</time><hdop>3.75</hdop><vdop>2.5</vdop><extensions><gom:speed>19.158</gom:speed></extensions></trkpt>
   <trkpt lat="59.0353416206" lon="29.9793957942"><ele>93.772</ele><time>2026-04-20T21:05:38.171Z</time><hdop>3.75</hdop><vdop>2.5</vdop><extensions><gom:speed>18.248</gom:speed></extensions></trkpt>
   <trkpt lat="59.0351209251" lon="29.9778976966"><ele>93.946</ele><time>2026-04-20T21:05:43.171Z</time><hdop>3.75</hdop><vdop>2.5</vdop><extensions><gom:speed>18.358</gom:speed></extensions></trkpt>
   <trkpt lat="59.0345733354" lon="29.9765612021"><ele>94.582</ele><time>2026-04-20T21:05:48.171Z</time><hdop>3.75</hdop><vdop>2.5</vdop><extensions><gom:speed>19.608</gom:speed></extensions></trkpt>
  </trkseg>
 </trk>
</gpx>